createdAt,value
2023-01-08T00:05:27.039Z,9.70
2023-01-08T00:24:05.621Z,11.10
2023-01-08T00:42:44.414Z,10.60
2023-01-08T01:01:22.398Z,10.90
2023-01-08T01:20:02.449Z,8.20
2023-01-08T01:38:42.830Z,7.70
2023-01-08T01:57:18.197Z,5.80
2023-01-08T02:15:57.067Z,8.80
2023-01-08T02:34:36.279Z,7.70
2023-01-08T02:53:13.082Z,8.20
2023-01-08T03:30:29.444Z,6.40
2023-01-08T04:07:48.367Z,12.00
2023-01-08T04:26:24.937Z,9.10
2023-01-08T04:45:03.767Z,7.60
2023-01-08T05:03:43.199Z,8.50
2023-01-08T05:22:21.894Z,5.30
2023-01-08T05:59:39.412Z,6.40
2023-01-08T06:18:21.086Z,6.60
2023-01-08T06:36:59.041Z,4.80
2023-01-08T07:14:18.071Z,4.10
2023-01-08T07:33:00.167Z,5.10
2023-01-08T07:51:40.592Z,4.40
2023-01-08T08:10:21.194Z,6.00
2023-01-08T08:29:00.145Z,9.80
2023-01-08T08:47:42.039Z,5.30
2023-01-08T09:06:24.043Z,6.50
2023-01-08T09:43:54.952Z,2.20
2023-01-08T10:02:40.659Z,3.50
2023-01-08T10:21:36.440Z,3.00
2023-01-08T10:40:12.872Z,2.10
2023-01-08T10:58:39.898Z,2.30
2023-01-08T11:17:29.268Z,4.20
2023-01-08T11:36:15.100Z,1.90
2023-01-08T11:54:52.032Z,2.20
2023-01-08T12:13:47.355Z,2.60
2023-01-08T12:50:58.623Z,2.60
2023-01-08T14:05:23.225Z,2.50
2023-01-08T14:42:39.663Z,3.30
2023-01-08T15:01:17.097Z,2.50
2023-01-08T15:19:55.460Z,2.60
2023-01-08T15:57:15.167Z,3.30
2023-01-08T16:15:45.275Z,2.50
2023-01-08T16:34:25.032Z,3.70
2023-01-08T16:53:02.286Z,7.60
2023-01-08T17:11:41.011Z,3.20
2023-01-08T17:30:21.191Z,3.30
2023-01-08T17:49:01.258Z,5.00
2023-01-08T18:07:38.148Z,5.30
2023-01-08T18:26:16.668Z,6.00
2023-01-08T18:44:56.135Z,4.90
2023-01-08T19:03:35.007Z,5.30
2023-01-08T19:22:12.623Z,5.50
2023-01-08T19:59:31.119Z,12.40
2023-01-08T20:18:04.807Z,11.10
2023-01-08T20:55:20.523Z,8.20
2023-01-08T21:13:58.951Z,9.80
2023-01-08T21:32:38.290Z,7.70
2023-01-08T21:51:17.698Z,8.60
2023-01-08T22:09:58.292Z,8.70
2023-01-08T22:28:36.302Z,11.10
2023-01-08T22:47:14.999Z,14.20
2023-01-08T23:06:00.202Z,9.40
2023-01-08T23:24:31.470Z,5.80
